Gore Bay, Canada
Current Conditions -  °F | °C
As of 2:16 PM on Monday 20 Oct 2014 (Local Time) from CYZE Reporting Station
Light Rain Light Rain  
Wind Chill: 50°   Ceiling: 1000
Heat Index: 50°   Visibility: 9mi
Dew Point: 50°   Wind: 5mph
Humidity: 100%   Direction: 280°W
Pressure: 29.72"   Gusts: NA
Location:  45.92°N, 82.47°W
Report Text: CYZE 201816Z AUTO 28004KT 9SM -RA BKN010 OVC044 10/10 A2972 RMK TS/LTNG TEMPO UNAVBL SLP070
Loading
Personal Weather Stations






























Interactive Weather Map
Tropical Storm Tracking
New forecast layout! Learn more

10-Day Weather Forecast

Advertisements
Track Severe Weather on mobile